Neptune Avra — 9HKH6 — position and weather

sailwx.info

Track history (hours):
 
Tides and Currents Weather Stations Pressure Air Temp Water Temp Dewpoint Dewpoint Depression Visibility Wind Speed Wind Dir Waves Ship Positions

Neptune Avra

Last reported at 2016-Jul-22 21:32 UTC. Time now 2016-Jul-23 15:06 UTC.
Position N 36°24' W 001°11'.

Length 155 m; draft 6 m.

Type: Cargo ship. MMSI: 248598000.

Date/timePositionNaut miles runAvg speedWind from/ knotsBaromVisibWave heightAir tempDewpointWater temp
2016-Jul-22 21:32N 36°24' W 001°11'2 0.7
2016-Jul-22 18:26N 36°23' W 001°13'1 0.7
2016-Jul-22 17:34N 36°23' W 001°14'1 0.9
2016-Jul-22 16:33N 36°23' W 001°15'1 1.1
2016-Jul-22 15:28N 36°23' W 001°16'1 1.0
2016-Jul-22 14:33N 36°22' W 001°17'3 1.2
2016-Jul-22 12:28N 36°22' W 001°20'8 0.8
2016-Jul-22 02:21N 36°19' W 001°30'1 0.6
2016-Jul-22 01:26N 36°19' W 001°31'1 0.5
2016-Jul-22 00:29N 36°19' W 001°31'0 0.2
2016-Jul-21 23:31N 36°20' W 001°32'21 4.8
2016-Jul-21 19:04N 36°41' W 001°30'3714.7
2016-Jul-21 16:33N 37°12' W 001°05'1615.6
2016-Jul-21 15:33N 37°22' W 000°50'1615.6
2016-Jul-21 14:33N 37°32' W 000°35'3315.7
2016-Jul-21 12:26N 37°60' W 000°12'2915.5
2016-Jul-21 10:32N 38°25' E 000°08'2015.7
2016-Jul-21 09:15N 38°42' E 000°22'1215.7
2016-Jul-21 08:28N 38°51' E 000°31'1516.3
2016-Jul-21 07:33N 39°03' E 000°43'1616.4
2016-Jul-21 06:33N 39°16' E 000°56'1616.3
2016-Jul-21 05:33N 39°29' E 001°09'1716.5
2016-Jul-21 04:33N 39°42' E 001°22'1616.6
2016-Jul-21 03:33N 39°55' E 001°35'1616.3
2016-Jul-21 02:34N 40°08' E 001°48'1616.4
2016-Jul-21 01:33N 40°21' E 002°01'1716.7
2016-Jul-21 00:33N 40°34' E 002°14'1716.5
2016-Jul-20 23:33N 40°47' E 002°28'1716.5
2016-Jul-20 22:33N 41°01' E 002°41'1616.6
2016-Jul-20 21:33N 41°14' E 002°54'2016.2
2016-Jul-20 20:19N 41°29' E 003°11'6416.1
2016-Jul-20 16:20N 42°20' E 004°04'1316.4
2016-Jul-20 15:32N 42°30' E 004°15'1616.8
2016-Jul-20 14:33N 42°43' E 004°29'1816.4
2016-Jul-20 13:27N 42°57' E 004°45'1416.0
2016-Jul-20 12:33N 43°09' E 004°56'1414.0
2016-Jul-20 11:33N 43°22' E 004°57'3 0.3
2016-Jul-20 01:34N 43°20' E 004°59'1515.0
2016-Jul-20 00:34N 43°05' E 004°56'1918.9
2016-Jul-19 23:33N 42°50' E 004°40'1918.5
2016-Jul-19 22:32N 42°35' E 004°25'1918.9
2016-Jul-19 21:33N 42°20' E 004°09'1918.9
2016-Jul-19 20:33N 42°05' E 003°54'1918.9
2016-Jul-19 19:33N 41°50' E 003°39'1919.2
2016-Jul-19 18:33N 41°35' E 003°23'1919.2
2016-Jul-19 17:33N 41°20' E 003°07'1919.0
2016-Jul-19 16:33N 41°05' E 002°51'1919.1
2016-Jul-19 15:33N 40°50' E 002°36'1919.1
2016-Jul-19 14:33N 40°34' E 002°21'1919.1
2016-Jul-19 13:33N 40°19' E 002°05'1919.1
2016-Jul-19 12:33N 40°04' E 001°50'1919.1
2016-Jul-19 11:33N 39°50' E 001°34'2219.0
2016-Jul-19 10:25N 39°32' E 001°18'3216.9
2016-Jul-19 08:33N 39°07' E 000°53'4016.5
2016-Jul-19 06:08N 38°35' E 000°22'6216.2
2016-Jul-19 02:20N 37°44' W 000°22'1215.7
2016-Jul-19 01:33N 37°34' W 000°31'1615.7
2016-Jul-19 00:33N 37°24' W 000°45'1615.8
2016-Jul-18 23:33N 37°13' W 001°00'1615.8
2016-Jul-18 22:33N 37°03' W 001°15'1615.6
2016-Jul-18 21:33N 36°52' W 001°29'1615.8
2016-Jul-18 20:33N 36°42' W 001°44'1615.6
2016-Jul-18 19:32N 36°31' W 001°59'1515.4
2016-Jul-18 18:33N 36°22' W 002°14'145 6.9
2016-Jul-17 21:31N 36°03' W 005°12'1415.0
2016-Jul-17 20:33N 35°56' W 005°28'2 0.1
2016-Jul-17 03:33N 35°56' W 005°31'1010.3
2016-Jul-17 02:33N 36°01' W 005°20'288 6.1
2016-Jul-15 03:33N 37°13' E 000°28'1916.7
2016-Jul-15 02:24N 37°31' E 000°34'14816.7
2016-Jul-14 17:33N 39°53' E 001°30'1616.4
2016-Jul-14 16:34N 40°08' E 001°38'1716.5
2016-Jul-14 15:33N 40°23' E 001°45'1716.6
2016-Jul-14 14:33N 40°39' E 001°53'1816.6
2016-Jul-14 13:29N 40°56' E 002°00'196 9.3
2016-Jul-13 16:22N 43°20' E 004°58'1 0.2
2016-Jul-13 09:33N 43°21' E 004°59'13314.7
2016-Jul-13 00:30N 41°31' E 003°18'1814.6
2016-Jul-12 23:15N 41°16' E 003°03'1115.0
2016-Jul-12 22:33N 41°08' E 002°55'1514.8
2016-Jul-12 21:33N 40°56' E 002°43'  
Track history (hours):
 
Tides and Currents Weather Stations Pressure Air Temp Water Temp Dewpoint Dewpoint Depression Visibility Wind Speed Wind Dir Waves Ship Positions

Neptune Avra

Last reported at 2016-Jul-22 21:32 UTC. Time now 2016-Jul-23 15:06 UTC.
Position N 36°24' W 001°11'.

Length 155 m; draft 6 m.

Type: Cargo ship. MMSI: 248598000.

Date/timePositionNaut miles runAvg speedWind from/ knotsBaromVisibWave heightAir tempDewpointWater temp
2016-Jul-22 21:32N 36°24' W 001°11'2 0.7
2016-Jul-22 18:26N 36°23' W 001°13'1 0.7
2016-Jul-22 17:34N 36°23' W 001°14'1 0.9
2016-Jul-22 16:33N 36°23' W 001°15'1 1.1
2016-Jul-22 15:28N 36°23' W 001°16'1 1.0
2016-Jul-22 14:33N 36°22' W 001°17'3 1.2
2016-Jul-22 12:28N 36°22' W 001°20'8 0.8
2016-Jul-22 02:21N 36°19' W 001°30'1 0.6
2016-Jul-22 01:26N 36°19' W 001°31'1 0.5
2016-Jul-22 00:29N 36°19' W 001°31'0 0.2
2016-Jul-21 23:31N 36°20' W 001°32'21 4.8
2016-Jul-21 19:04N 36°41' W 001°30'3714.7
2016-Jul-21 16:33N 37°12' W 001°05'1615.6
2016-Jul-21 15:33N 37°22' W 000°50'1615.6
2016-Jul-21 14:33N 37°32' W 000°35'3315.7
2016-Jul-21 12:26N 37°60' W 000°12'2915.5
2016-Jul-21 10:32N 38°25' E 000°08'2015.7
2016-Jul-21 09:15N 38°42' E 000°22'1215.7
2016-Jul-21 08:28N 38°51' E 000°31'1516.3
2016-Jul-21 07:33N 39°03' E 000°43'1616.4
2016-Jul-21 06:33N 39°16' E 000°56'1616.3
2016-Jul-21 05:33N 39°29' E 001°09'1716.5
2016-Jul-21 04:33N 39°42' E 001°22'1616.6
2016-Jul-21 03:33N 39°55' E 001°35'1616.3
2016-Jul-21 02:34N 40°08' E 001°48'1616.4
2016-Jul-21 01:33N 40°21' E 002°01'1716.7
2016-Jul-21 00:33N 40°34' E 002°14'1716.5
2016-Jul-20 23:33N 40°47' E 002°28'1716.5
2016-Jul-20 22:33N 41°01' E 002°41'1616.6
2016-Jul-20 21:33N 41°14' E 002°54'2016.2
2016-Jul-20 20:19N 41°29' E 003°11'6416.1
2016-Jul-20 16:20N 42°20' E 004°04'1316.4
2016-Jul-20 15:32N 42°30' E 004°15'1616.8
2016-Jul-20 14:33N 42°43' E 004°29'1816.4
2016-Jul-20 13:27N 42°57' E 004°45'1416.0
2016-Jul-20 12:33N 43°09' E 004°56'1414.0
2016-Jul-20 11:33N 43°22' E 004°57'3 0.3
2016-Jul-20 01:34N 43°20' E 004°59'1515.0
2016-Jul-20 00:34N 43°05' E 004°56'1918.9
2016-Jul-19 23:33N 42°50' E 004°40'1918.5
2016-Jul-19 22:32N 42°35' E 004°25'1918.9
2016-Jul-19 21:33N 42°20' E 004°09'1918.9
2016-Jul-19 20:33N 42°05' E 003°54'1918.9
2016-Jul-19 19:33N 41°50' E 003°39'1919.2
2016-Jul-19 18:33N 41°35' E 003°23'1919.2
2016-Jul-19 17:33N 41°20' E 003°07'1919.0
2016-Jul-19 16:33N 41°05' E 002°51'1919.1
2016-Jul-19 15:33N 40°50' E 002°36'1919.1
2016-Jul-19 14:33N 40°34' E 002°21'1919.1
2016-Jul-19 13:33N 40°19' E 002°05'1919.1
2016-Jul-19 12:33N 40°04' E 001°50'1919.1
2016-Jul-19 11:33N 39°50' E 001°34'2219.0
2016-Jul-19 10:25N 39°32' E 001°18'3216.9
2016-Jul-19 08:33N 39°07' E 000°53'4016.5
2016-Jul-19 06:08N 38°35' E 000°22'6216.2
2016-Jul-19 02:20N 37°44' W 000°22'1215.7
2016-Jul-19 01:33N 37°34' W 000°31'1615.7
2016-Jul-19 00:33N 37°24' W 000°45'1615.8
2016-Jul-18 23:33N 37°13' W 001°00'1615.8
2016-Jul-18 22:33N 37°03' W 001°15'1615.6
2016-Jul-18 21:33N 36°52' W 001°29'1615.8
2016-Jul-18 20:33N 36°42' W 001°44'1615.6
2016-Jul-18 19:32N 36°31' W 001°59'1515.4
2016-Jul-18 18:33N 36°22' W 002°14'145 6.9
2016-Jul-17 21:31N 36°03' W 005°12'1415.0
2016-Jul-17 20:33N 35°56' W 005°28'2 0.1
2016-Jul-17 03:33N 35°56' W 005°31'1010.3
2016-Jul-17 02:33N 36°01' W 005°20'288 6.1
2016-Jul-15 03:33N 37°13' E 000°28'1916.7
2016-Jul-15 02:24N 37°31' E 000°34'14816.7
2016-Jul-14 17:33N 39°53' E 001°30'1616.4
2016-Jul-14 16:34N 40°08' E 001°38'1716.5
2016-Jul-14 15:33N 40°23' E 001°45'1716.6
2016-Jul-14 14:33N 40°39' E 001°53'1816.6
2016-Jul-14 13:29N 40°56' E 002°00'196 9.3
2016-Jul-13 16:22N 43°20' E 004°58'1 0.2
2016-Jul-13 09:33N 43°21' E 004°59'13314.7
2016-Jul-13 00:30N 41°31' E 003°18'1814.6
2016-Jul-12 23:15N 41°16' E 003°03'1115.0
2016-Jul-12 22:33N 41°08' E 002°55'1514.8
2016-Jul-12 21:33N 40°56' E 002°43'  

Dump ship's entire track history